createdAt,value
2022-09-07T00:00:25.249Z,54.35
2022-09-07T00:02:55.884Z,54.29
2022-09-07T00:05:28.268Z,54.70
2022-09-07T00:07:59.486Z,54.29
2022-09-07T00:10:30.817Z,54.63
2022-09-07T00:13:01.016Z,54.65
2022-09-07T00:15:31.205Z,54.74
2022-09-07T00:18:01.607Z,54.52
2022-09-07T00:20:33.075Z,55.04
2022-09-07T00:23:03.272Z,55.13
2022-09-07T00:25:33.375Z,55.15
2022-09-07T00:28:03.796Z,54.93
2022-09-07T00:30:34.000Z,55.45
2022-09-07T00:33:04.252Z,55.31
2022-09-07T00:35:41.108Z,55.12
2022-09-07T00:38:11.671Z,55.38
2022-09-07T00:40:41.640Z,55.39
2022-09-07T00:43:16.019Z,55.77
2022-09-07T00:45:45.988Z,56.21
2022-09-07T00:48:19.980Z,56.78
2022-09-07T00:50:56.801Z,57.62
2022-09-07T00:53:31.250Z,58.14
2022-09-07T00:56:04.048Z,58.46
2022-09-07T00:58:37.188Z,58.60
2022-09-07T01:01:07.864Z,59.13
2022-09-07T01:03:41.247Z,59.88
2022-09-07T01:06:17.025Z,60.01
2022-09-07T01:08:51.305Z,60.61
2022-09-07T01:11:23.648Z,60.68
2022-09-07T01:13:55.080Z,60.67
2022-09-07T01:16:47.212Z,60.68
2022-09-07T01:20:03.876Z,61.69
2022-09-07T01:22:52.598Z,61.52
2022-09-07T01:25:38.072Z,62.36
2022-09-07T01:28:15.076Z,61.96
2022-09-07T01:30:53.073Z,62.51
2022-09-07T01:33:42.324Z,62.16
2022-09-07T01:36:23.061Z,62.57
2022-09-07T01:38:56.246Z,62.42
2022-09-07T01:41:31.784Z,62.63
2022-09-07T01:44:06.927Z,62.60
2022-09-07T01:46:44.568Z,62.22
2022-09-07T01:49:20.091Z,61.91
2022-09-07T01:51:57.122Z,62.59
2022-09-07T01:54:34.045Z,62.35
2022-09-07T01:57:09.164Z,61.91
2022-09-07T01:59:43.998Z,61.76
2022-09-07T02:02:18.395Z,61.30
2022-09-07T02:04:54.752Z,61.24
2022-09-07T02:07:29.117Z,61.44
2022-09-07T02:10:02.139Z,61.39
2022-09-07T02:12:38.896Z,61.65
2022-09-07T02:15:15.511Z,62.17
2022-09-07T02:17:49.692Z,62.72
2022-09-07T02:20:23.189Z,63.09
2022-09-07T02:22:57.426Z,62.64
2022-09-07T02:25:30.720Z,62.18
2022-09-07T02:28:06.420Z,61.79
2022-09-07T02:30:38.448Z,62.23
2022-09-07T02:33:08.735Z,63.09
2022-09-07T02:35:39.020Z,62.93
2022-09-07T02:38:10.062Z,62.60
2022-09-07T02:40:40.204Z,62.53
2022-09-07T02:43:12.385Z,62.75
2022-09-07T02:45:55.577Z,62.42
2022-09-07T02:48:38.805Z,62.96
2022-09-07T02:51:16.759Z,62.84
2022-09-07T02:54:15.432Z,61.93
2022-09-07T02:57:00.399Z,62.41
2022-09-07T02:59:41.617Z,62.89
2022-09-07T03:02:20.014Z,63.11
2022-09-07T03:04:57.980Z,62.91
2022-09-07T03:07:35.979Z,63.04
2022-09-07T03:10:08.515Z,62.86
2022-09-07T03:12:44.899Z,63.28
2022-09-07T03:15:17.548Z,63.50
2022-09-07T03:17:49.003Z,63.38
2022-09-07T03:20:19.454Z,63.17
2022-09-07T03:22:51.105Z,62.88
2022-09-07T03:25:23.132Z,63.39
2022-09-07T03:27:53.225Z,63.89
2022-09-07T03:30:23.381Z,63.49
2022-09-07T03:32:55.579Z,64.42
2022-09-07T03:35:26.976Z,64.09
2022-09-07T03:37:57.079Z,64.61
2022-09-07T03:40:27.148Z,64.19
2022-09-07T03:42:57.290Z,65.18
2022-09-07T03:45:27.685Z,64.42
2022-09-07T03:47:59.219Z,65.38
2022-09-07T03:50:29.386Z,64.70
2022-09-07T03:52:59.356Z,64.73
2022-09-07T03:55:29.264Z,64.53
2022-09-07T03:57:59.261Z,65.28
2022-09-07T04:00:29.302Z,65.33
2022-09-07T04:03:00.583Z,65.64
2022-09-07T04:05:30.575Z,65.00
2022-09-07T04:08:01.435Z,64.80
2022-09-07T04:10:31.295Z,65.07
2022-09-07T04:13:01.199Z,64.72
2022-09-07T04:15:31.829Z,65.03
2022-09-07T04:18:03.387Z,64.98
2022-09-07T04:20:33.652Z,64.36
2022-09-07T04:23:03.576Z,64.71
2022-09-07T04:25:34.867Z,64.77
2022-09-07T04:28:05.331Z,64.18
2022-09-07T04:30:36.164Z,64.51
2022-09-07T04:33:07.639Z,64.54
2022-09-07T04:35:38.233Z,64.83
2022-09-07T04:38:09.772Z,64.57
2022-09-07T04:40:39.836Z,64.52
2022-09-07T04:43:13.056Z,64.22
2022-09-07T04:45:43.133Z,64.23
2022-09-07T04:48:14.398Z,63.70
2022-09-07T04:50:44.334Z,63.65
2022-09-07T04:53:14.273Z,63.91
2022-09-07T04:55:44.289Z,63.74
2022-09-07T04:58:14.476Z,64.01
2022-09-07T05:00:44.439Z,63.67
2022-09-07T05:03:15.799Z,63.64
2022-09-07T05:05:46.371Z,63.84
2022-09-07T05:08:16.407Z,63.52
2022-09-07T05:10:53.023Z,63.13
2022-09-07T05:13:24.644Z,63.08
2022-09-07T05:15:55.214Z,62.33
2022-09-07T05:18:27.246Z,62.29
2022-09-07T05:20:57.196Z,61.89
2022-09-07T05:23:27.327Z,61.52
2022-09-07T05:25:57.490Z,61.42
2022-09-07T05:28:27.442Z,61.13
2022-09-07T05:31:19.994Z,60.74
2022-09-07T05:36:43.722Z,59.69
2022-09-07T05:39:14.142Z,59.62
2022-09-07T05:41:44.114Z,59.33
2022-09-07T05:47:04.393Z,59.57
2022-09-07T05:49:35.951Z,59.11
2022-09-07T05:52:05.921Z,59.01
2022-09-07T05:54:35.997Z,59.65
2022-09-07T05:57:07.324Z,59.22
2022-09-07T05:59:37.264Z,59.55
2022-09-07T06:02:08.366Z,59.31
2022-09-07T06:04:39.867Z,59.05
2022-09-07T06:07:28.223Z,59.43
2022-09-07T06:12:49.277Z,59.75
2022-09-07T06:15:19.766Z,59.33
2022-09-07T06:17:49.703Z,59.17
2022-09-07T06:20:21.231Z,59.06
2022-09-07T06:22:51.212Z,59.36
2022-09-07T06:25:21.149Z,58.93
2022-09-07T06:27:53.925Z,58.61
2022-09-07T06:30:25.393Z,58.91
2022-09-07T06:32:55.280Z,58.60
2022-09-07T06:35:26.890Z,58.16
2022-09-07T06:37:56.826Z,58.16
2022-09-07T06:40:26.856Z,58.25
2022-09-07T06:42:56.720Z,57.78
2022-09-07T06:45:26.910Z,57.86
2022-09-07T06:47:57.141Z,57.43
2022-09-07T06:50:28.951Z,57.14
2022-09-07T06:55:48.967Z,56.94
2022-09-07T06:58:19.053Z,56.78
2022-09-07T07:00:49.298Z,56.73
2022-09-07T07:03:19.329Z,56.25
2022-09-07T07:05:56.209Z,56.48
2022-09-07T07:08:27.232Z,56.22
2022-09-07T07:11:02.006Z,56.34
2022-09-07T07:13:32.408Z,55.87
2022-09-07T07:16:05.958Z,55.42
2022-09-07T07:18:36.416Z,55.56
2022-09-07T07:21:09.883Z,55.09
2022-09-07T07:23:40.241Z,54.46
2022-09-07T07:26:13.549Z,53.92
2022-09-07T07:29:00.802Z,53.72
2022-09-07T07:31:33.293Z,53.58
2022-09-07T07:34:03.856Z,53.32
2022-09-07T07:36:35.794Z,53.07
2022-09-07T07:39:06.027Z,51.49
2022-09-07T07:44:26.058Z,51.01
2022-09-07T07:46:55.973Z,50.85
2022-09-07T07:49:26.237Z,49.77
2022-09-07T07:54:49.715Z,50.02
2022-09-07T07:57:19.928Z,49.97
2022-09-07T07:59:50.412Z,49.80
2022-09-07T08:02:22.948Z,49.99
2022-09-07T08:04:53.899Z,49.32
2022-09-07T08:07:25.198Z,49.77
2022-09-07T08:09:55.091Z,49.03
2022-09-07T08:12:29.595Z,49.38
2022-09-07T08:15:00.408Z,48.46
2022-09-07T08:17:30.785Z,48.09
2022-09-07T08:20:01.460Z,47.86
2022-09-07T08:22:34.838Z,47.70
2022-09-07T08:25:07.093Z,47.88
2022-09-07T08:27:37.326Z,46.83
2022-09-07T08:30:08.936Z,46.42
2022-09-07T08:32:38.965Z,47.00
2022-09-07T08:35:09.309Z,47.27
2022-09-07T08:37:40.669Z,45.70
2022-09-07T08:40:13.598Z,45.65
2022-09-07T08:42:56.901Z,44.71
2022-09-07T08:45:33.360Z,44.98
2022-09-07T08:48:05.955Z,44.57
2022-09-07T08:50:46.902Z,44.88
2022-09-07T08:53:21.119Z,44.88
2022-09-07T08:55:54.103Z,45.24
2022-09-07T08:58:48.284Z,45.00
2022-09-07T09:01:36.698Z,45.16
2022-09-07T09:04:18.718Z,44.12
2022-09-07T09:07:02.277Z,44.72
2022-09-07T09:09:46.038Z,44.19
2022-09-07T09:12:26.346Z,44.76
2022-09-07T09:15:11.032Z,45.41
2022-09-07T09:17:48.124Z,44.38
2022-09-07T09:20:25.148Z,43.83
2022-09-07T09:22:58.427Z,43.19
2022-09-07T09:25:34.687Z,43.03
2022-09-07T09:28:04.904Z,42.74
2022-09-07T09:30:34.912Z,42.01
2022-09-07T09:33:16.768Z,41.75
2022-09-07T09:35:51.360Z,41.44
2022-09-07T09:38:35.704Z,42.04
2022-09-07T09:41:08.841Z,40.06
2022-09-07T09:43:45.808Z,40.26
2022-09-07T09:46:23.277Z,40.94
2022-09-07T09:48:59.616Z,40.14
2022-09-07T09:54:27.217Z,40.61
2022-09-07T09:56:58.780Z,39.85
2022-09-07T10:05:29.541Z,40.83
2022-09-07T10:07:59.585Z,40.14
2022-09-07T10:10:31.471Z,40.77
2022-09-07T10:13:04.449Z,40.09
2022-09-07T10:15:40.649Z,40.24
2022-09-07T10:18:23.666Z,39.79
2022-09-07T10:20:53.604Z,40.00
2022-09-07T10:23:25.804Z,42.66
2022-09-07T10:25:56.919Z,40.77
2022-09-07T10:29:06.439Z,40.50
2022-09-07T10:31:26.298Z,39.61
2022-09-07T10:37:00.253Z,40.21
2022-09-07T10:39:35.854Z,40.31
2022-09-07T10:42:23.255Z,39.73
2022-09-07T10:45:04.723Z,38.81
2022-09-07T10:47:46.945Z,40.61
2022-09-07T10:50:31.853Z,41.31
2022-09-07T10:53:39.107Z,39.91
2022-09-07T10:56:10.055Z,39.83
2022-09-07T10:59:06.847Z,39.09
2022-09-07T11:01:50.800Z,39.77
2022-09-07T11:04:36.488Z,39.13
2022-09-07T11:07:16.561Z,38.88
2022-09-07T11:09:58.168Z,37.98
2022-09-07T11:12:32.551Z,38.03
2022-09-07T11:15:11.061Z,38.55
2022-09-07T11:17:50.629Z,39.02
2022-09-07T11:20:30.987Z,38.19
2022-09-07T11:23:13.530Z,37.84
2022-09-07T11:25:55.557Z,37.85
2022-09-07T11:28:29.255Z,38.19
2022-09-07T11:31:05.356Z,38.03
2022-09-07T11:34:23.723Z,38.37
2022-09-07T11:36:39.699Z,38.83
2022-09-07T11:39:17.499Z,38.76
2022-09-07T11:41:55.161Z,39.75
2022-09-07T11:44:29.795Z,40.35
2022-09-07T11:47:09.066Z,40.30
2022-09-07T11:49:40.356Z,39.96
2022-09-07T11:52:21.652Z,39.68
2022-09-07T11:54:56.616Z,38.59
2022-09-07T11:57:40.933Z,38.54
2022-09-07T12:00:17.538Z,39.11
2022-09-07T12:03:24.799Z,38.23
2022-09-07T12:06:28.173Z,38.61
2022-09-07T12:09:10.634Z,37.61
2022-09-07T12:12:12.705Z,38.26
2022-09-07T12:14:57.035Z,38.74
2022-09-07T12:17:47.204Z,38.43
2022-09-07T12:20:19.237Z,38.46
2022-09-07T12:23:05.352Z,38.13
2022-09-07T12:25:36.499Z,38.75
2022-09-07T12:28:06.845Z,39.46
2022-09-07T12:30:59.137Z,38.11
2022-09-07T12:33:34.699Z,37.44
2022-09-07T12:36:42.425Z,38.51
2022-09-07T12:39:28.537Z,38.39
2022-09-07T12:42:37.801Z,37.99
2022-09-07T12:45:50.238Z,37.03
2022-09-07T12:48:34.589Z,37.06
2022-09-07T12:51:11.010Z,38.19
2022-09-07T12:53:52.133Z,38.19
2022-09-07T12:56:39.662Z,37.02
2022-09-07T12:59:32.207Z,37.61
2022-09-07T13:02:18.234Z,37.90
2022-09-07T13:04:58.870Z,38.29
2022-09-07T13:07:49.177Z,38.53
2022-09-07T13:10:30.888Z,39.03
2022-09-07T13:13:08.197Z,36.99
2022-09-07T13:15:43.097Z,36.89
2022-09-07T13:18:41.666Z,38.81
2022-09-07T13:21:33.175Z,38.01
2022-09-07T13:24:47.411Z,38.62
2022-09-07T13:27:52.219Z,37.46
2022-09-07T13:30:28.972Z,38.62
2022-09-07T13:33:52.723Z,38.38
2022-09-07T13:36:34.788Z,37.40
2022-09-07T13:39:08.936Z,37.30
2022-09-07T13:41:44.456Z,36.67
2022-09-07T13:44:26.213Z,36.52
2022-09-07T13:47:07.902Z,36.38
2022-09-07T13:50:13.201Z,37.49
2022-09-07T13:53:02.507Z,38.67
2022-09-07T13:55:39.528Z,37.94
2022-09-07T13:58:17.946Z,38.89
2022-09-07T14:00:54.167Z,39.04
2022-09-07T14:03:27.123Z,39.00
2022-09-07T14:06:28.289Z,38.52
2022-09-07T14:09:02.424Z,39.69
2022-09-07T14:11:41.621Z,38.42
2022-09-07T14:14:17.783Z,38.05
2022-09-07T14:16:50.694Z,37.17
2022-09-07T14:19:24.453Z,37.54
2022-09-07T14:21:59.064Z,37.11
2022-09-07T14:24:35.907Z,37.08
2022-09-07T14:27:07.191Z,37.81
2022-09-07T14:29:37.943Z,37.35
2022-09-07T14:32:14.617Z,36.95
2022-09-07T14:34:45.765Z,37.19
2022-09-07T14:37:18.204Z,37.64
2022-09-07T14:39:51.261Z,36.90
2022-09-07T14:42:23.968Z,37.10
2022-09-07T14:45:18.518Z,38.36
2022-09-07T14:47:52.301Z,37.92
2022-09-07T14:50:24.726Z,37.90
2022-09-07T14:55:48.171Z,38.27
2022-09-07T14:58:24.728Z,38.78
2022-09-07T15:04:01.367Z,38.70
2022-09-07T15:09:31.046Z,38.60
2022-09-07T15:12:29.749Z,36.60
2022-09-07T15:15:24.443Z,36.89
2022-09-07T15:17:58.998Z,36.50
2022-09-07T15:20:43.307Z,37.20
2022-09-07T15:23:14.616Z,36.91
2022-09-07T15:25:51.095Z,36.92
2022-09-07T15:34:12.174Z,37.30
2022-09-07T15:36:43.498Z,38.15
2022-09-07T15:39:20.402Z,38.18
2022-09-07T15:41:51.582Z,38.07
2022-09-07T15:44:26.047Z,37.26
2022-09-07T15:49:50.589Z,37.21
2022-09-07T15:52:21.647Z,37.03
2022-09-07T15:54:51.599Z,37.30
2022-09-07T16:00:14.186Z,37.40
2022-09-07T16:05:34.186Z,37.55
2022-09-07T16:10:55.682Z,39.44
2022-09-07T16:13:34.301Z,39.01
2022-09-07T16:16:07.997Z,38.87
2022-09-07T16:18:39.268Z,39.84
2022-09-07T16:21:12.308Z,39.32
2022-09-07T16:23:44.856Z,39.16
2022-09-07T16:26:16.447Z,39.81
2022-09-07T16:28:48.728Z,38.61
2022-09-07T16:31:21.869Z,39.52
2022-09-07T16:33:52.183Z,39.41
2022-09-07T16:36:23.603Z,39.70
2022-09-07T16:38:56.883Z,39.57
2022-09-07T16:41:29.308Z,39.57
2022-09-07T16:44:00.112Z,39.49
2022-09-07T16:46:34.876Z,39.18
2022-09-07T16:49:07.197Z,39.50
2022-09-07T16:51:37.267Z,40.15
2022-09-07T16:54:07.918Z,40.04
2022-09-07T16:56:39.261Z,39.51
2022-09-07T16:59:16.039Z,39.19
2022-09-07T17:01:48.257Z,39.83
2022-09-07T17:04:18.708Z,39.76
2022-09-07T17:06:48.620Z,40.40
2022-09-07T17:09:18.627Z,40.59
2022-09-07T17:11:48.428Z,40.66
2022-09-07T17:14:18.328Z,40.95
2022-09-07T17:16:49.571Z,41.09
2022-09-07T17:19:36.216Z,40.84
2022-09-07T17:22:06.075Z,40.64
2022-09-07T17:24:35.863Z,40.90
2022-09-07T17:27:06.272Z,40.85
2022-09-07T17:29:37.762Z,40.41
2022-09-07T17:32:25.377Z,40.51
2022-09-07T17:34:56.286Z,40.77
2022-09-07T17:37:26.183Z,41.10
2022-09-07T17:39:56.897Z,41.36
2022-09-07T17:43:38.862Z,41.33
2022-09-07T17:45:18.415Z,41.50
2022-09-07T17:47:50.397Z,41.67
2022-09-07T17:50:20.755Z,41.47
2022-09-07T17:52:52.968Z,41.29
2022-09-07T17:55:23.224Z,41.00
2022-09-07T17:57:53.059Z,40.31
2022-09-07T18:00:22.973Z,40.39
2022-09-07T18:02:54.098Z,39.78
2022-09-07T18:05:24.438Z,39.93
2022-09-07T18:07:54.515Z,40.27
2022-09-07T18:10:24.850Z,40.61
2022-09-07T18:12:55.642Z,40.48
2022-09-07T18:15:25.672Z,40.72
2022-09-07T18:17:58.541Z,40.49
2022-09-07T18:20:28.345Z,40.53
2022-09-07T18:22:58.084Z,40.54
2022-09-07T18:25:28.335Z,40.99
2022-09-07T18:30:49.211Z,41.65
2022-09-07T18:33:21.179Z,41.80
2022-09-07T18:35:51.082Z,42.19
2022-09-07T18:38:20.892Z,42.61
2022-09-07T18:40:51.119Z,42.31
2022-09-07T18:43:21.255Z,42.57
2022-09-07T18:45:51.202Z,42.76
2022-09-07T18:48:22.370Z,43.46
2022-09-07T18:50:55.002Z,43.44
2022-09-07T18:53:25.089Z,43.47
2022-09-07T18:55:55.288Z,43.34
2022-09-07T18:58:25.064Z,43.55
2022-09-07T19:00:58.348Z,43.70
2022-09-07T19:03:29.683Z,43.94
2022-09-07T19:06:05.068Z,43.96
2022-09-07T19:08:36.535Z,44.38
2022-09-07T19:11:07.930Z,44.57
2022-09-07T19:13:38.820Z,45.23
2022-09-07T19:16:12.567Z,44.92
2022-09-07T19:18:47.940Z,45.05
2022-09-07T19:21:20.778Z,45.28
2022-09-07T19:23:56.512Z,45.31
2022-09-07T19:26:28.151Z,45.79
2022-09-07T19:29:00.946Z,45.04
2022-09-07T19:31:32.351Z,45.47
2022-09-07T19:34:04.056Z,45.62
2022-09-07T19:36:35.119Z,45.91
2022-09-07T19:39:05.624Z,46.07
2022-09-07T19:41:35.565Z,46.31
2022-09-07T19:44:06.501Z,46.39
2022-09-07T19:46:36.522Z,46.51
2022-09-07T19:49:12.068Z,46.89
2022-09-07T19:51:42.432Z,47.21
2022-09-07T19:54:13.681Z,47.06
2022-09-07T19:56:44.836Z,47.31
2022-09-07T19:59:14.850Z,47.66
2022-09-07T20:01:47.281Z,47.75
2022-09-07T20:04:20.565Z,47.82
2022-09-07T20:06:51.594Z,48.34
2022-09-07T20:09:21.608Z,48.40
2022-09-07T20:11:51.439Z,48.43
2022-09-07T20:14:21.228Z,48.66
2022-09-07T20:16:51.443Z,48.59
2022-09-07T20:19:22.687Z,48.64
2022-09-07T20:21:55.720Z,48.70
2022-09-07T20:24:25.577Z,48.60
2022-09-07T20:26:55.589Z,48.77
2022-09-07T20:29:28.218Z,48.67
2022-09-07T20:32:00.464Z,48.72
2022-09-07T20:34:32.365Z,48.76
2022-09-07T20:37:02.396Z,48.68
2022-09-07T20:39:36.973Z,48.44
2022-09-07T20:42:09.073Z,47.97
2022-09-07T20:44:39.019Z,48.39
2022-09-07T20:47:09.034Z,48.27
2022-09-07T20:49:40.617Z,48.42
2022-09-07T20:52:10.830Z,48.36
2022-09-07T20:54:40.636Z,48.63
2022-09-07T20:57:10.578Z,48.21
2022-09-07T20:59:40.354Z,48.17
2022-09-07T21:02:10.807Z,48.28
2022-09-07T21:04:43.406Z,48.16
2022-09-07T21:07:13.358Z,48.02
2022-09-07T21:09:43.217Z,47.78
2022-09-07T21:12:12.978Z,48.26
2022-09-07T21:14:42.784Z,48.18
2022-09-07T21:17:12.912Z,48.15
2022-09-07T21:19:44.308Z,48.16
2022-09-07T21:22:14.231Z,48.16
2022-09-07T21:24:44.079Z,48.36
2022-09-07T21:27:14.240Z,48.46
2022-09-07T21:29:44.091Z,48.58
2022-09-07T21:32:13.807Z,48.71
2022-09-07T21:34:45.009Z,49.10
2022-09-07T21:37:15.065Z,49.14
2022-09-07T21:39:44.815Z,49.72
2022-09-07T21:42:14.909Z,49.75
2022-09-07T21:44:44.652Z,49.83
2022-09-07T21:47:14.458Z,49.93
2022-09-07T21:49:45.993Z,50.30
2022-09-07T21:52:15.790Z,50.53
2022-09-07T21:54:45.612Z,50.59
2022-09-07T21:57:15.621Z,50.21
2022-09-07T21:59:45.653Z,49.96
2022-09-07T22:02:15.477Z,49.82
2022-09-07T22:04:46.764Z,49.92
2022-09-07T22:07:16.635Z,50.02
2022-09-07T22:09:47.624Z,50.14
2022-09-07T22:12:17.762Z,50.25
2022-09-07T22:14:47.799Z,50.09
2022-09-07T22:17:17.695Z,49.78
2022-09-07T22:19:48.942Z,49.69
2022-09-07T22:22:18.796Z,49.88
2022-09-07T22:24:49.214Z,49.86
2022-09-07T22:27:19.102Z,49.57
2022-09-07T22:29:48.873Z,49.87
2022-09-07T22:32:18.694Z,49.78
2022-09-07T22:34:51.689Z,50.06
2022-09-07T22:37:21.675Z,49.88
2022-09-07T22:39:51.614Z,49.87
2022-09-07T22:42:21.467Z,49.92
2022-09-07T22:44:51.269Z,49.90
2022-09-07T22:47:21.163Z,50.30
2022-09-07T22:49:52.662Z,50.40
2022-09-07T22:52:22.535Z,50.76
2022-09-07T22:54:52.363Z,50.67
2022-09-07T22:57:23.424Z,51.33
2022-09-07T22:59:53.480Z,51.38
2022-09-07T23:02:23.305Z,51.59
2022-09-07T23:04:54.729Z,51.53
2022-09-07T23:07:24.692Z,51.72
2022-09-07T23:09:54.759Z,51.85
2022-09-07T23:12:25.011Z,51.88
2022-09-07T23:14:55.065Z,51.73
2022-09-07T23:17:24.968Z,52.08
2022-09-07T23:19:56.803Z,52.04
2022-09-07T23:22:26.691Z,52.23
2022-09-07T23:24:56.524Z,52.44
2022-09-07T23:27:26.706Z,52.07
2022-09-07T23:29:56.616Z,52.51
2022-09-07T23:32:26.384Z,53.20
2022-09-07T23:34:57.559Z,53.33
2022-09-07T23:37:27.407Z,53.39
2022-09-07T23:39:57.713Z,53.70
2022-09-07T23:42:27.757Z,53.72
2022-09-07T23:44:57.586Z,54.11
2022-09-07T23:47:27.627Z,54.37
2022-09-07T23:49:58.823Z,55.11
2022-09-07T23:52:28.782Z,54.96
2022-09-07T23:54:58.757Z,54.77
2022-09-07T23:57:28.964Z,54.93
2022-09-07T23:59:59.434Z,54.98
